Time;durP1;ratioP1;P1;durP2;ratioP2;P2;SDS_P1;SDS_P2;PMS_P1;PMS_P2;Temp;Humidity;BMP_temperature;BMP_pressure;BME280_temperature;BME280_humidity;BME280_pressure;Samples;Min_cycle;Max_cycle;Signal;HPM_P1;HPM_P2
2022/04/11 00:00:50;;;;;;;6.18;4.22;;;;;;;3.71;64.45;97082.94;4940581;29;20045;-84
2022/04/11 00:03:18;;;;;;;6.28;4.40;;;;;;;3.74;64.42;97081.03;4940020;29;20063;-83
2022/04/11 00:05:47;;;;;;;6.47;4.70;;;;;;;3.75;64.06;97074.97;4939837;29;20067;-86
2022/04/11 00:08:15;;;;;;;5.90;4.45;;;;;;;3.73;65.30;97080.25;4939830;29;20043;-83
2022/04/11 00:10:43;;;;;;;7.65;5.38;;;;;;;3.76;64.50;97076.59;4939960;29;20099;-84
2022/04/11 00:13:11;;;;;;;5.13;4.45;;;;;;;3.70;63.79;97065.84;4939980;29;20056;-83
2022/04/11 00:15:41;;;;;;;5.35;3.80;;;;;;;3.63;64.01;97067.28;4940270;29;20056;-83
2022/04/11 00:18:10;;;;;;;8.02;4.30;;;;;;;3.58;63.78;97059.09;4940293;29;20064;-84
2022/04/11 00:20:39;;;;;;;7.47;4.43;;;;;;;3.55;63.94;97066.28;4941148;29;20095;-85
2022/04/11 00:23:07;;;;;;;6.30;4.30;;;;;;;3.51;63.75;97057.97;4941107;29;20039;-84
2022/04/11 00:25:35;;;;;;;7.10;4.18;;;;;;;3.51;64.95;97063.13;4940275;29;20107;-83
2022/04/11 00:28:03;;;;;;;4.78;4.28;;;;;;;3.55;64.85;97056.78;4939110;29;20064;-83
2022/04/11 00:30:31;;;;;;;7.07;5.00;;;;;;;3.58;64.39;97050.56;4939802;29;20063;-84
2022/04/11 00:33:00;;;;;;;6.00;4.20;;;;;;;3.57;64.19;97059.25;4939271;29;20072;-84
2022/04/11 00:35:30;;;;;;;5.22;4.20;;;;;;;3.55;64.43;97056.78;4939306;29;20096;-83
2022/04/11 00:37:58;;;;;;;5.80;4.30;;;;;;;3.57;64.49;97060.06;4938950;29;20048;-84
2022/04/11 00:40:26;;;;;;;7.07;4.68;;;;;;;3.56;64.24;97053.25;4938726;29;20406;-83
2022/04/11 00:42:54;;;;;;;6.18;4.38;;;;;;;3.53;64.09;97052.69;4939402;29;20040;-84
2022/04/11 00:45:22;;;;;;;6.07;4.45;;;;;;;3.50;63.95;97046.84;4939035;29;20108;-83
2022/04/11 00:47:50;;;;;;;6.65;4.75;;;;;;;3.47;63.81;97043.69;4937767;29;20056;-85
2022/04/11 00:50:18;;;;;;;5.90;5.30;;;;;;;3.41;64.25;97051.94;4938973;29;20058;-83
2022/04/11 00:52:50;;;;;;;7.28;3.97;;;;;;;3.36;64.46;97051.50;4939057;29;20096;-83
2022/04/11 00:55:21;;;;;;;7.95;5.20;;;;;;;3.32;64.65;97057.84;4939488;29;20040;-83
2022/04/11 00:57:49;;;;;;;10.35;4.88;;;;;;;3.27;64.60;97053.88;4938660;29;20054;-83
2022/04/11 01:00:19;;;;;;;4.65;4.05;;;;;;;3.24;64.70;97048.16;4939195;29;20055;-84
2022/04/11 01:02:47;;;;;;;5.88;4.45;;;;;;;3.26;65.15;97047.09;4939059;29;20062;-84
2022/04/11 01:05:15;;;;;;;7.05;5.00;;;;;;;3.28;64.92;97045.22;4938340;29;20060;-83
2022/04/11 01:07:43;;;;;;;5.88;4.55;;;;;;;3.30;65.01;97053.66;4938731;29;20039;-84
2022/04/11 01:10:12;;;;;;;5.55;4.35;;;;;;;3.33;64.77;97054.34;4938588;29;20084;-83
2022/04/11 01:12:41;;;;;;;7.32;5.18;;;;;;;3.37;64.62;97042.81;4938042;29;20067;-83
2022/04/11 01:15:09;;;;;;;6.07;4.63;;;;;;;3.42;65.88;97035.53;4938529;29;20064;-84
2022/04/11 01:17:39;;;;;;;7.20;4.72;;;;;;;3.43;65.29;97037.16;4938187;29;20102;-83
2022/04/11 01:20:08;;;;;;;7.60;5.35;;;;;;;3.43;65.26;97039.72;4938369;29;20036;-84
2022/04/11 01:22:37;;;;;;;5.47;4.20;;;;;;;3.43;65.98;97035.41;4938746;29;20056;-83
2022/04/11 01:25:07;;;;;;;6.32;5.15;;;;;;;3.46;65.67;97032.56;4938335;29;20124;-85
2022/04/11 01:27:35;;;;;;;5.90;4.75;;;;;;;3.49;66.60;97034.88;4937905;29;20562;-83
2022/04/11 01:30:03;;;;;;;8.52;5.35;;;;;;;3.50;65.87;97027.97;4937437;29;20052;-84
2022/04/11 01:32:31;;;;;;;5.65;5.03;;;;;;;3.49;65.82;97023.75;4938447;29;20112;-83
2022/04/11 01:34:58;;;;;;;6.10;5.30;;;;;;;3.47;65.22;97018.72;4939037;29;20139;-84
2022/04/11 01:37:27;;;;;;;6.78;5.50;;;;;;;3.46;65.04;97024.00;4938288;28;20103;-84
2022/04/11 01:39:56;;;;;;;6.03;5.43;;;;;;;3.42;64.96;97017.47;4938485;29;20048;-84
2022/04/11 01:42:24;;;;;;;8.32;6.53;;;;;;;3.37;65.16;97012.69;4939009;29;20099;-84
2022/04/11 01:44:51;;;;;;;7.53;6.35;;;;;;;3.33;65.34;97013.09;4939107;29;20092;-84
2022/04/11 01:47:19;;;;;;;9.52;6.53;;;;;;;3.30;65.41;97006.38;4938082;29;20100;-83
2022/04/11 01:49:47;;;;;;;8.77;5.75;;;;;;;3.29;65.45;97018.47;4939187;29;20058;-84
2022/04/11 01:52:15;;;;;;;8.38;5.20;;;;;;;3.29;65.25;97009.94;4938965;29;20095;-83
2022/04/11 01:54:42;;;;;;;6.55;5.20;;;;;;;3.30;65.24;97008.97;4938718;29;20052;-84
2022/04/11 01:57:31;;;;;;;7.03;5.63;;;;;;;3.33;65.10;97010.50;4938245;29;20111;-83
2022/04/11 01:59:59;;;;;;;7.72;5.80;;;;;;;3.29;65.09;97010.75;4941907;29;20067;-83
2022/04/11 02:02:27;;;;;;;7.85;6.07;;;;;;;3.26;65.18;97011.00;4941776;29;20059;-84
2022/04/11 02:04:56;;;;;;;9.70;5.82;;;;;;;3.22;65.19;97007.03;4941786;29;20111;-84
2022/04/11 02:07:24;;;;;;;10.35;6.07;;;;;;;3.19;65.43;97019.34;4941383;29;20085;-83
2022/04/11 02:09:51;;;;;;;9.80;5.97;;;;;;;3.17;65.19;97016.91;4941486;29;20111;-83
2022/04/11 02:12:19;;;;;;;8.43;5.65;;;;;;;3.13;65.31;97020.69;4941237;29;20116;-83
2022/04/11 02:14:48;;;;;;;7.80;5.80;;;;;;;3.14;65.74;97021.50;4941813;29;20095;-83
2022/04/11 02:17:16;;;;;;;6.75;5.47;;;;;;;3.15;65.46;97018.81;4940572;29;20078;-83
2022/04/11 02:19:43;;;;;;;6.63;5.90;;;;;;;3.16;65.85;97017.84;4940906;29;20055;-83
2022/04/11 02:22:11;;;;;;;8.23;5.95;;;;;;;3.18;65.45;97015.16;4941463;29;20112;-84
2022/04/11 02:24:39;;;;;;;9.23;5.80;;;;;;;3.20;65.45;97014.06;4941527;29;20115;-84
2022/04/11 02:27:07;;;;;;;7.97;5.93;;;;;;;3.19;65.59;97017.59;4940236;29;20056;-83
2022/04/11 02:29:35;;;;;;;11.80;7.10;;;;;;;3.19;66.04;97015.03;4940567;29;20111;-83
2022/04/11 02:32:05;;;;;;;9.93;7.07;;;;;;;3.18;65.68;97008.22;4940580;29;20091;-84
2022/04/11 02:34:32;;;;;;;14.00;5.78;;;;;;;3.19;65.80;97015.03;4940859;29;20048;-83
2022/04/11 02:37:00;;;;;;;8.32;6.30;;;;;;;3.20;65.43;97010.69;4939998;29;20080;-83
2022/04/11 02:39:28;;;;;;;9.02;6.47;;;;;;;3.23;66.17;97016.38;4940384;29;20135;-83
2022/04/11 02:41:55;;;;;;;7.55;5.97;;;;;;;3.26;65.81;97010.19;4940684;29;20068;-83
2022/04/11 02:44:23;;;;;;;8.43;6.30;;;;;;;3.28;65.73;97003.16;4940652;29;20049;-83
2022/04/11 02:46:51;;;;;;;8.93;7.10;;;;;;;3.32;65.75;96998.53;4939881;29;20107;-84
2022/04/11 02:49:20;;;;;;;7.97;6.28;;;;;;;3.32;65.73;96998.53;4940431;29;20048;-83
2022/04/11 02:51:48;;;;;;;8.43;7.20;;;;;;;3.33;65.97;96995.03;4940606;29;20040;-83
2022/04/11 02:54:15;;;;;;;9.75;7.03;;;;;;;3.33;65.96;96995.03;4940248;29;20051;-83
2022/04/11 02:56:43;;;;;;;10.00;6.80;;;;;;;3.36;66.00;96994.75;4938774;29;20075;-84
2022/04/11 02:59:11;;;;;;;12.40;7.85;;;;;;;3.38;65.95;96991.09;4939718;29;20059;-83
2022/04/11 03:01:39;;;;;;;11.52;7.78;;;;;;;3.41;65.74;96987.47;4940063;29;20116;-83
2022/04/11 03:04:07;;;;;;;9.98;8.40;;;;;;;3.43;65.97;96988.16;4939758;29;20051;-83
2022/04/11 03:06:36;;;;;;;10.52;8.38;;;;;;;3.48;67.11;96988.59;4939807;29;20066;-83
2022/04/11 03:09:04;;;;;;;12.55;8.35;;;;;;;3.54;66.54;96982.91;4941621;29;20092;-83
2022/04/11 03:11:32;;;;;;;9.38;7.63;;;;;;;3.57;66.78;96974.94;4941986;29;20037;-85
2022/04/11 03:14:00;;;;;;;8.43;6.95;;;;;;;3.59;66.09;96970.47;4941141;29;20133;-84
2022/04/11 03:16:28;;;;;;;8.00;6.95;;;;;;;3.57;65.70;96964.63;4939171;29;20052;-83
2022/04/11 03:18:56;;;;;;;7.88;6.47;;;;;;;3.57;65.62;96968.97;4940378;29;20055;-83
2022/04/11 03:21:24;;;;;;;9.30;6.93;;;;;;;3.59;65.24;96959.34;4940140;29;20048;-83
2022/04/11 03:23:53;;;;;;;8.02;7.13;;;;;;;3.61;65.40;96955.69;4940336;29;20067;-83
2022/04/11 03:26:21;;;;;;;9.00;7.45;;;;;;;3.60;65.38;96951.44;4939601;29;20039;-85
2022/04/11 03:28:49;;;;;;;11.05;7.50;;;;;;;3.59;65.11;96944.66;4940335;29;20107;-84
2022/04/11 03:31:17;;;;;;;8.18;7.03;;;;;;;3.60;65.57;96948.88;4940007;29;20139;-83
2022/04/11 03:33:45;;;;;;;12.85;7.53;;;;;;;3.63;65.48;96945.22;4940060;29;20099;-83
2022/04/11 03:36:13;;;;;;;12.80;8.20;;;;;;;3.65;65.33;96939.00;4939315;29;20044;-83
2022/04/11 03:38:41;;;;;;;11.20;7.47;;;;;;;3.65;65.26;96938.16;4939743;29;20067;-83
2022/04/11 03:41:10;;;;;;;9.35;8.02;;;;;;;3.63;65.92;96932.31;4939707;29;20052;-83
2022/04/11 03:43:38;;;;;;;13.32;8.15;;;;;;;3.66;65.94;96935.44;4940027;29;20091;-83
2022/04/11 03:46:06;;;;;;;9.40;8.02;;;;;;;3.72;66.92;96929.78;4939359;29;20036;-84
2022/04/11 03:48:34;;;;;;;8.75;6.82;;;;;;;3.77;66.37;96926.81;4939806;29;20052;-83
2022/04/11 03:51:02;;;;;;;9.60;7.60;;;;;;;3.84;66.88;96927.09;4940122;29;20059;-83
2022/04/11 03:53:35;;;;;;;8.90;7.13;;;;;;;3.88;65.71;96925.88;4939884;29;20108;-83
2022/04/11 03:56:03;;;;;;;8.85;7.10;;;;;;;3.86;65.37;96920.03;4938887;29;20040;-83
2022/04/11 03:58:33;;;;;;;9.20;7.45;;;;;;;3.82;65.02;96921.25;4939493;29;20067;-84
2022/04/11 04:01:01;;;;;;;9.25;6.90;;;;;;;3.81;65.14;96919.63;4939146;29;20083;-83
2022/04/11 04:03:30;;;;;;;8.40;7.05;;;;;;;3.80;65.01;96923.13;4939521;29;20048;-84
2022/04/11 04:05:58;;;;;;;10.63;7.35;;;;;;;3.78;65.16;96917.28;4938834;29;20032;-83
2022/04/11 04:08:26;;;;;;;8.77;7.80;;;;;;;3.80;65.21;96916.22;4939260;29;20052;-83
2022/04/11 04:10:54;;;;;;;9.38;7.63;;;;;;;3.79;65.26;96916.34;4939118;29;20038;-83
2022/04/11 04:13:23;;;;;;;8.68;6.60;;;;;;;3.79;65.41;96918.94;4939246;29;20055;-83
2022/04/11 04:15:52;;;;;;;11.85;7.15;;;;;;;3.80;64.96;96920.56;4938198;29;20045;-83
2022/04/11 04:18:20;;;;;;;9.00;7.07;;;;;;;3.79;64.94;96914.59;4938906;29;20528;-83
2022/04/11 04:20:48;;;;;;;12.93;8.18;;;;;;;3.79;64.89;96906.03;4939002;29;20063;-83
2022/04/11 04:23:17;;;;;;;8.35;6.95;;;;;;;3.82;65.36;96913.50;4938561;29;20048;-83
2022/04/11 04:25:46;;;;;;;9.77;6.90;;;;;;;3.82;64.63;96898.03;4938838;29;20034;-84
2022/04/11 04:28:17;;;;;;;9.20;6.90;;;;;;;3.82;64.71;96892.84;4938564;29;20048;-83
2022/04/11 04:30:49;;;;;;;9.57;7.13;;;;;;;3.84;64.92;96899.50;4938696;29;20058;-83
2022/04/11 04:33:18;;;;;;;10.45;6.82;;;;;;;3.86;64.73;96899.38;4938572;29;20123;-83
2022/04/11 04:35:47;;;;;;;9.43;6.85;;;;;;;3.86;64.63;96889.06;4938684;29;20056;-86
2022/04/11 04:38:15;;;;;;;8.43;6.72;;;;;;;3.87;64.56;96895.84;4938060;29;20112;-83
2022/04/11 04:40:44;;;;;;;7.68;6.85;;;;;;;3.88;64.42;96898.31;4938222;29;20112;-83
2022/04/11 04:43:12;;;;;;;10.82;7.22;;;;;;;3.86;64.64;96897.63;4938582;29;20032;-83
2022/04/11 04:45:40;;;;;;;9.85;6.60;;;;;;;3.84;64.55;96891.78;4938425;29;20048;-83
2022/04/11 04:48:10;;;;;;;13.20;9.32;;;;;;;3.84;64.68;96890.97;4938424;29;20047;-83
2022/04/11 04:50:39;;;;;;;9.38;7.97;;;;;;;3.84;64.36;96896.94;4938675;29;20116;-83
2022/04/11 04:53:07;;;;;;;12.27;8.63;;;;;;;3.84;64.74;96890.97;4938590;29;20063;-83
2022/04/11 04:55:35;;;;;;;10.02;8.43;;;;;;;3.83;64.64;96892.75;4938211;29;20060;-83
2022/04/11 04:58:04;;;;;;;10.48;9.10;;;;;;;3.82;64.86;96893.66;4937459;29;20050;-83
2022/04/11 05:00:32;;;;;;;11.30;8.18;;;;;;;3.82;64.44;96890.28;4938369;29;20088;-83
2022/04/11 05:02:59;;;;;;;12.15;9.00;;;;;;;3.81;64.89;96891.25;4938482;29;20083;-84
2022/04/11 05:05:28;;;;;;;12.15;9.43;;;;;;;3.80;64.85;96894.75;4938476;29;20092;-84
2022/04/11 05:07:57;;;;;;;11.85;9.38;;;;;;;3.79;65.17;96890.56;4938698;29;20075;-83
2022/04/11 05:10:25;;;;;;;19.02;9.90;;;;;;;3.77;65.09;96895.84;4938126;29;20032;-82
2022/04/11 05:12:53;;;;;;;11.90;9.93;;;;;;;3.78;65.91;96902.63;4938455;29;20257;-83
2022/04/11 05:15:21;;;;;;;12.13;9.50;;;;;;;3.79;65.44;96903.47;4938323;29;20036;-83
2022/04/11 05:17:49;;;;;;;11.63;9.65;;;;;;;3.77;64.99;96900.19;4937469;29;20048;-83
2022/04/11 05:20:17;;;;;;;21.50;10.30;;;;;;;3.76;65.42;96901.13;4938532;29;20074;-84
2022/04/11 05:22:44;;;;;;;13.73;9.15;;;;;;;3.77;65.13;96905.34;4938664;29;20058;-84
2022/04/11 05:25:14;;;;;;;13.52;9.90;;;;;;;3.76;65.59;96909.69;4938155;29;20096;-83
2022/04/11 05:27:42;;;;;;;13.63;10.50;;;;;;;3.75;65.30;96904.66;4936825;29;20052;-83
2022/04/11 05:30:10;;;;;;;15.35;10.73;;;;;;;3.72;65.18;96898.81;4937763;29;20068;-83
2022/04/11 05:32:38;;;;;;;13.32;8.82;;;;;;;3.72;65.30;96898.81;4938610;29;20048;-84
2022/04/11 05:35:08;;;;;;;14.27;10.48;;;;;;;3.75;65.43;96904.66;4942000;29;20072;-83
2022/04/11 05:37:36;;;;;;;14.98;10.15;;;;;;;3.77;65.24;96905.34;4942158;29;20040;-84
2022/04/11 05:40:05;;;;;;;12.05;8.75;;;;;;;3.77;65.36;96895.03;4942753;29;20116;-83
2022/04/11 05:42:37;;;;;;;13.05;9.20;;;;;;;3.79;64.85;96893.94;4943138;29;20111;-83
2022/04/11 05:45:05;;;;;;;15.05;9.57;;;;;;;3.81;65.13;96891.25;4942993;29;20107;-83
2022/04/11 05:47:33;;;;;;;15.48;9.95;;;;;;;3.79;65.05;96898.28;4942071;29;20048;-83
2022/04/11 05:50:01;;;;;;;13.35;10.38;;;;;;;3.79;64.85;96901.69;4942539;29;20107;-83
2022/04/11 05:52:29;;;;;;;16.15;10.15;;;;;;;3.82;65.06;96903.19;4941964;29;20068;-83
2022/04/11 05:54:57;;;;;;;14.25;9.73;;;;;;;3.82;64.67;96900.59;4941908;29;20032;-81
2022/04/11 05:57:25;;;;;;;11.48;9.18;;;;;;;3.83;65.15;96902.25;4941809;29;20108;-85
2022/04/11 05:59:54;;;;;;;11.27;8.57;;;;;;;3.85;64.84;96900.34;4943906;29;20040;-84
2022/04/11 06:02:22;;;;;;;11.75;8.15;;;;;;;3.88;64.80;96890.56;4943226;29;20036;-83
2022/04/11 06:04:50;;;;;;;11.38;8.95;;;;;;;3.95;64.79;96887.47;4941332;29;20055;-83
2022/04/11 06:07:20;;;;;;;11.05;7.93;;;;;;;3.99;65.16;96889.63;4940521;29;20139;-84
2022/04/11 06:09:49;;;;;;;9.88;8.05;;;;;;;4.06;64.95;96889.91;4941300;29;20052;-83
2022/04/11 06:12:17;;;;;;;10.85;7.57;;;;;;;4.11;64.64;96896.31;4941387;29;20100;-83
2022/04/11 06:14:45;;;;;;;11.13;7.85;;;;;;;4.18;65.22;96893.22;4941658;29;20063;-83
2022/04/11 06:17:15;;;;;;;9.63;7.07;;;;;;;4.25;64.88;96894.28;4941273;29;20112;-84
2022/04/11 06:19:43;;;;;;;9.63;7.72;;;;;;;4.30;64.56;96895.50;4942566;29;20047;-85
2022/04/11 06:22:12;;;;;;;8.00;6.50;;;;;;;4.34;64.44;96901.22;4942082;29;20040;-83
2022/04/11 06:24:43;;;;;;;12.55;7.15;;;;;;;4.38;63.85;96894.84;4941539;29;20124;-83
2022/04/11 06:27:11;;;;;;;9.98;7.68;;;;;;;4.39;63.96;96891.28;4941209;29;20109;-82
2022/04/11 06:29:40;;;;;;;8.30;6.82;;;;;;;4.43;63.96;96903.00;4941775;29;20075;-83
2022/04/11 06:32:08;;;;;;;11.25;8.35;;;;;;;4.48;63.78;96889.66;4941898;29;20099;-83
2022/04/11 06:34:38;;;;;;;11.73;7.03;;;;;;;4.50;63.42;96896.34;4941727;29;20052;-83
2022/04/11 06:37:07;;;;;;;9.18;7.15;;;;;;;4.53;63.34;96895.25;4941866;29;20071;-84
2022/04/11 06:39:35;;;;;;;10.57;7.75;;;;;;;4.57;64.06;96888.03;4941751;29;20064;-83
2022/04/11 06:42:03;;;;;;;12.93;8.23;;;;;;;4.62;64.00;96891.84;4942248;29;20059;-83
2022/04/11 06:44:32;;;;;;;9.13;7.45;;;;;;;4.67;63.03;96891.44;4941986;29;20032;-83
2022/04/11 06:47:01;;;;;;;14.75;8.85;;;;;;;4.71;62.76;96890.22;4941356;29;20039;-83
2022/04/11 06:49:30;;;;;;;8.55;6.65;;;;;;;4.79;62.49;96887.75;4941822;29;20119;-83
2022/04/11 06:52:01;;;;;;;13.50;7.65;;;;;;;4.85;62.39;96886.38;4942087;29;20108;-84
2022/04/11 06:54:30;;;;;;;9.43;6.90;;;;;;;4.91;62.50;96885.81;4942100;29;20047;-83
2022/04/11 06:57:01;;;;;;;10.77;7.43;;;;;;;5.01;62.07;96896.13;4942212;29;20055;-83
2022/04/11 06:59:31;;;;;;;;;;;;;;;5.11;62.44;96896.94;4942877;29;20068;-83
2022/04/11 07:02:00;;;;;;;9.23;6.13;;;;;;;5.18;61.83;96903.16;4942366;29;19927;-83
2022/04/11 07:04:30;;;;;;;7.90;6.22;;;;;;;5.25;61.85;96906.84;4942356;29;20044;-83
2022/04/11 07:07:03;;;;;;;7.78;5.72;;;;;;;5.32;60.94;96914.84;4926450;29;20040;-84
2022/04/11 07:09:37;;;;;;;9.20;6.05;;;;;;;5.41;61.02;96913.19;4942604;28;20064;-84
2022/04/11 07:12:08;;;;;;;9.63;6.30;;;;;;;5.50;61.79;96913.16;4942796;29;20048;-83
2022/04/11 07:14:39;;;;;;;10.18;6.50;;;;;;;5.61;62.26;96909.56;4942835;29;20052;-83
2022/04/11 07:17:14;;;;;;;;;;;;;;;5.70;61.08;96906.09;4943051;29;20048;-84
2022/04/11 09:15:10;;;;;;;4.97;2.95;;;;;;;13.88;39.35;96883.97;5978375;23;20030;-81
2022/04/11 09:17:46;;;;;;;3.92;2.90;;;;;;;14.89;38.00;96882.41;4941925;29;20056;-79
2022/04/11 09:20:24;;;;;;;2.97;2.38;;;;;;;15.85;37.05;96876.63;4941111;29;20111;-78
2022/04/11 09:22:59;;;;;;;4.85;2.45;;;;;;;16.46;35.83;96872.69;4924701;29;20069;-79
2022/04/11 09:41:11;;;;;;;10.95;2.97;;;;;;;16.15;35.58;96865.56;4958272;28;20039;-79
2022/04/11 09:44:46;;;;;;;4.22;2.97;;;;;;;15.99;33.70;96858.97;4861973;29;20049;-78
2022/04/11 09:58:19;;;;;;;4.70;2.28;;;;;;;15.48;35.09;96855.28;5457606;23;20066;-85
2022/04/11 10:00:47;;;;;;;3.97;2.28;;;;;;;15.45;36.23;96850.44;4950017;29;20048;-83
2022/04/11 10:03:15;;;;;;;2.45;2.00;;;;;;;15.42;35.88;96841.13;4949500;29;20078;-87
2022/04/11 10:05:43;;;;;;;5.30;2.13;;;;;;;15.41;35.51;96833.44;4948791;29;20078;-83
2022/04/11 10:08:12;;;;;;;2.95;2.28;;;;;;;15.46;36.31;96831.03;4939551;29;20135;-88
2022/04/11 10:10:42;;;;;;;3.13;2.55;;;;;;;15.48;34.45;96822.91;4930298;29;20115;-90
2022/04/11 10:13:12;;;;;;;6.15;3.00;;;;;;;15.56;36.94;96830.56;4931692;29;20127;-89
2022/04/11 10:15:43;;;;;;;3.78;2.88;;;;;;;15.63;34.99;96829.56;4930368;29;20048;-87
2022/04/11 10:18:15;;;;;;;2.20;2.00;;;;;;;15.63;34.34;96826.94;4930171;29;20048;-87
2022/04/11 10:20:46;;;;;;;2.50;1.98;;;;;;;15.61;35.02;96828.13;4929683;29;20253;-87
2022/04/11 10:23:41;;;;;;;3.38;2.30;;;;;;;15.64;35.86;96832.97;4930680;29;20055;-82
2022/04/11 10:26:17;;;;;;;2.58;2.38;;;;;;;15.78;35.44;96828.50;4929662;29;20171;-84
2022/04/11 10:28:47;;;;;;;5.65;3.15;;;;;;;15.89;34.24;96829.66;4931330;29;20088;-84
2022/04/11 10:31:17;;;;;;;2.58;2.38;;;;;;;15.92;33.72;96835.34;4931144;29;20093;-88
2022/04/11 10:33:49;;;;;;;5.75;2.78;;;;;;;15.96;32.94;96826.00;4930972;29;20074;-84
2022/04/11 10:36:30;;;;;;;6.07;3.08;;;;;;;15.97;32.44;96818.91;4930091;29;20056;-89
2022/04/11 10:39:29;;;;;;;5.25;2.58;;;;;;;15.94;34.40;96814.88;4930387;29;20080;-87
2022/04/11 10:42:16;;;;;;;6.40;2.78;;;;;;;16.02;35.63;96819.88;4888315;29;20076;-87
2022/04/11 10:44:46;;;;;;;5.60;2.53;;;;;;;16.10;32.96;96823.31;4931776;29;20056;-86
2022/04/11 10:47:37;;;;;;;5.93;2.10;;;;;;;16.24;34.21;96816.94;4929995;29;20071;-86
2022/04/11 10:50:36;;;;;;;3.92;2.33;;;;;;;16.32;32.72;96816.69;4931776;29;20052;-87
2022/04/11 10:53:16;;;;;;;5.70;2.10;;;;;;;16.34;35.36;96806.75;4931561;29;20060;-85
2022/04/11 10:56:05;;;;;;;3.53;2.08;;;;;;;16.41;36.17;96815.41;4931081;29;20083;-82
2022/04/11 10:58:48;;;;;;;4.75;2.40;;;;;;;16.44;32.79;96801.00;4930287;29;20048;-85
2022/04/11 11:01:55;;;;;;;2.75;2.20;;;;;;;16.46;34.94;96799.78;4931802;29;20553;-84
2022/04/11 11:04:30;;;;;;;2.00;1.80;;;;;;;16.48;32.53;96796.91;4930618;29;20541;-86
2022/04/11 11:07:26;;;;;;;5.10;2.17;;;;;;;16.53;33.61;96788.38;4930374;29;20079;-84
2022/04/11 11:09:57;;;;;;;2.92;2.15;;;;;;;16.63;35.18;96778.16;4931380;29;20094;-82
2022/04/11 11:12:27;;;;;;;2.50;1.83;;;;;;;16.77;33.72;96784.13;4930299;29;20072;-86
2022/04/11 11:14:56;;;;;;;4.50;2.28;;;;;;;16.83;32.75;96772.75;4930437;29;20066;-85
2022/04/11 11:18:06;;;;;;;5.05;3.00;;;;;;;16.84;31.65;96772.53;4930172;29;20060;-88
2022/04/11 11:20:51;;;;;;;3.65;2.67;;;;;;;16.73;31.58;96767.97;4886717;29;20052;-87
2022/04/11 11:23:31;;;;;;;4.32;2.70;;;;;;;16.60;30.56;96765.44;4931493;29;20365;-86
2022/04/11 11:26:09;;;;;;;2.95;2.10;;;;;;;16.54;32.19;96761.03;4930599;29;20103;-86
2022/04/11 11:28:38;;;;;;;3.75;2.63;;;;;;;16.62;34.21;96760.78;4931478;29;20089;-85
2022/04/11 11:31:13;;;;;;;3.25;2.20;;;;;;;16.64;31.83;96759.53;4930415;29;20060;-87
2022/04/11 11:33:51;;;;;;;3.28;1.80;;;;;;;16.66;31.63;96738.22;4930972;29;20088;-85
2022/04/11 11:36:30;;;;;;;3.42;1.60;;;;;;;16.69;31.39;96740.44;4931043;29;20044;-88
2022/04/11 11:39:12;;;;;;;2.72;1.85;;;;;;;16.74;31.74;96735.31;4930819;29;20052;-87
2022/04/11 11:41:42;;;;;;;3.95;2.45;;;;;;;16.81;31.21;96733.44;4931774;29;20060;-85
2022/04/11 11:44:17;;;;;;;2.50;2.28;;;;;;;16.93;30.28;96735.38;4932175;29;20139;-87
2022/04/11 11:46:49;;;;;;;3.22;1.92;;;;;;;16.98;31.01;96732.88;4931714;29;20092;-88
2022/04/11 11:49:18;;;;;;;1.60;1.50;;;;;;;16.99;30.85;96729.22;4930896;29;20068;-86
2022/04/11 11:51:49;;;;;;;3.22;1.25;;;;;;;17.03;30.34;96725.13;4931464;29;20060;-85
2022/04/11 11:54:33;;;;;;;1.58;1.40;;;;;;;17.05;29.34;96730.97;4931927;29;20060;-86
2022/04/11 11:57:02;;;;;;;2.47;1.42;;;;;;;17.00;31.12;96729.00;4930080;29;20553;-87
2022/04/11 11:59:33;;;;;;;4.00;1.90;;;;;;;17.01;30.53;96727.16;4930808;29;20059;-88
2022/04/11 12:04:51;;;;;;;3.00;2.10;;;;;;;17.22;29.96;96724.09;4930929;29;20112;-85
2022/04/11 12:07:30;;;;;;;2.10;1.70;;;;;;;17.21;29.44;96725.13;4930285;29;20491;-87
2022/04/11 12:09:59;;;;;;;2.80;1.70;;;;;;;17.24;30.53;96710.69;4930404;29;20075;-88
2022/04/11 12:12:27;;;;;;;2.90;2.50;;;;;;;17.23;29.20;96707.28;4930244;29;20085;-82
2022/04/11 12:15:00;;;;;;;2.05;1.85;;;;;;;17.24;30.97;96708.06;4928529;29;20530;-84
2022/04/11 12:17:33;;;;;;;3.83;1.85;;;;;;;17.25;31.16;96707.84;4929352;29;20125;-87
2022/04/11 12:20:13;;;;;;;3.40;2.10;;;;;;;17.21;31.02;96698.78;4929163;29;20545;-85
2022/04/11 12:23:01;;;;;;;3.40;2.60;;;;;;;17.13;30.85;96699.06;4928610;29;20052;-87
2022/04/11 12:25:31;;;;;;;5.57;2.00;;;;;;;17.03;32.50;96694.31;4928835;29;20531;-85
2022/04/11 12:28:27;;;;;;;3.83;2.20;;;;;;;17.01;32.10;96690.28;4928774;29;20063;-83
2022/04/11 12:31:15;;;;;;;2.97;2.03;;;;;;;16.99;32.30;96687.06;4885057;29;20056;-82
2022/04/11 12:33:48;;;;;;;3.28;2.08;;;;;;;16.99;31.39;96679.97;4928902;29;20067;-85
2022/04/11 12:36:19;;;;;;;5.28;1.83;;;;;;;17.10;31.78;96678.44;4928518;29;20090;-88
2022/04/11 12:38:52;;;;;;;2.97;2.10;;;;;;;17.12;29.45;96681.66;4928783;29;20048;-89
2022/04/11 12:41:38;;;;;;;3.03;1.80;;;;;;;17.06;29.41;96682.53;4928791;29;20056;-85
2022/04/11 12:44:16;;;;;;;3.22;2.10;;;;;;;17.04;29.67;96674.03;4928186;29;20076;-86
2022/04/11 12:46:48;;;;;;;2.40;2.10;;;;;;;17.06;31.43;96675.44;4928048;29;20060;-86
2022/04/11 12:49:19;;;;;;;8.05;3.15;;;;;;;17.09;30.22;96666.28;4929003;29;20056;-88
2022/04/11 12:51:59;;;;;;;4.85;2.78;;;;;;;17.05;30.88;96657.19;4929795;29;20091;-88
2022/04/11 12:54:45;;;;;;;3.30;2.97;;;;;;;17.00;30.69;96651.78;4928382;29;20533;-82
2022/04/11 12:57:25;;;;;;;2.95;2.58;;;;;;;16.87;30.59;96652.75;4927125;29;20052;-85
2022/04/11 12:59:55;;;;;;;4.82;2.40;;;;;;;16.69;31.11;96650.88;4928273;29;20048;-83
2022/04/11 13:02:28;;;;;;;3.28;2.60;;;;;;;16.56;31.02;96648.41;4929065;29;20123;-88
2022/04/11 13:05:12;;;;;;;3.45;2.50;;;;;;;16.42;30.61;96640.63;4928202;29;20060;-84
2022/04/11 13:08:00;;;;;;;2.65;1.92;;;;;;;16.30;31.40;96644.97;4928650;29;20579;-88
2022/04/11 13:10:35;;;;;;;2.38;2.10;;;;;;;16.34;32.74;96638.28;4928930;29;20052;-87
2022/04/11 13:13:07;;;;;;;3.03;2.83;;;;;;;16.31;31.45;96632.63;4929712;29;20064;-88
2022/04/11 13:18:23;;;;;;;4.25;2.70;;;;;;;16.21;32.43;96628.66;4928790;29;20343;-89
2022/04/11 13:18:27;;;;;;;4.07;2.47;;;;;;;16.19;32.50;96624.66;4928358;29;20060;-86
2022/04/11 13:20:56;;;;;;;3.47;1.92;;;;;;;16.17;34.49;96627.47;4928015;29;20415;-88
2022/04/11 13:23:24;;;;;;;5.00;2.45;;;;;;;16.21;33.63;96627.88;4928071;29;20063;-86
2022/04/11 13:25:55;;;;;;;4.47;2.55;;;;;;;16.24;33.46;96619.53;4927782;29;20056;-83
2022/04/11 13:28:24;;;;;;;2.67;2.47;;;;;;;16.23;32.95;96616.09;4928631;29;20063;-88
2022/04/11 13:30:57;;;;;;;4.10;2.65;;;;;;;16.22;33.34;96617.13;4927847;29;20044;-87
2022/04/11 13:33:30;;;;;;;2.58;2.38;;;;;;;16.21;32.22;96606.81;4928983;29;20056;-89
2022/04/11 13:36:00;;;;;;;2.83;2.45;;;;;;;16.12;32.29;96592.34;4928770;29;20110;-87
2022/04/11 13:38:29;;;;;;;3.65;2.70;;;;;;;16.03;32.31;96600.50;4929118;29;20060;-88
2022/04/11 13:41:00;;;;;;;3.42;2.10;;;;;;;15.99;33.05;96595.88;4928764;29;20075;-85
2022/04/11 13:43:30;;;;;;;1.77;1.65;;;;;;;16.00;32.50;96590.38;4928577;29;20056;-87
2022/04/11 13:45:59;;;;;;;2.95;2.53;;;;;;;15.99;31.30;96585.34;4926913;29;20055;-84
2022/04/11 13:48:30;;;;;;;5.38;2.53;;;;;;;15.94;32.29;96586.00;4927525;29;20052;-88
2022/04/11 13:50:59;;;;;;;3.10;2.27;;;;;;;15.93;32.23;96594.09;4928695;29;20048;-87
2022/04/11 13:53:29;;;;;;;4.53;2.40;;;;;;;15.91;32.46;96588.25;4928485;29;20507;-87
2022/04/11 13:55:59;;;;;;;3.92;1.90;;;;;;;15.89;32.03;96583.19;4929101;29;20080;-90
2022/04/11 13:58:31;;;;;;;4.30;2.58;;;;;;;15.89;31.97;96582.41;4929732;29;20063;-85
2022/04/11 14:01:05;;;;;;;3.05;2.22;;;;;;;15.85;31.81;96579.38;4929769;29;20142;-87
2022/04/11 14:03:40;;;;;;;2.88;2.08;;;;;;;15.80;32.87;96581.88;4930324;29;20060;-88
2022/04/11 14:06:08;;;;;;;3.90;2.57;;;;;;;15.79;33.37;96580.28;4929756;29;20076;-83
2022/04/11 14:08:37;;;;;;;4.35;2.63;;;;;;;15.79;32.88;96572.38;4928881;29;20056;-87
2022/04/11 14:11:10;;;;;;;3.08;2.47;;;;;;;15.78;33.32;96574.19;4930131;29;20080;-88
2022/04/11 14:13:40;;;;;;;3.20;2.70;;;;;;;15.74;32.21;96570.41;4929364;29;20052;-84
2022/04/11 14:16:09;;;;;;;3.22;2.35;;;;;;;15.68;31.97;96565.13;4928935;29;20075;-84
2022/04/11 14:18:37;;;;;;;3.88;2.80;;;;;;;15.62;31.63;96559.72;4929256;29;20155;-88
2022/04/11 14:21:07;;;;;;;4.30;2.10;;;;;;;15.58;31.45;96565.63;4929330;29;20048;-84